createdAt,value
2019-03-01T00:02:31.781Z,10.94
2019-03-01T00:09:20.125Z,11.04
2019-03-01T00:12:25.715Z,11.04
2019-03-01T00:15:29.183Z,11.01
2019-03-01T00:18:32.687Z,11.00
2019-03-01T00:21:45.859Z,10.88
2019-03-01T00:28:20.125Z,10.92
2019-03-01T00:31:42.279Z,10.91
2019-03-01T00:34:57.171Z,10.96
2019-03-01T00:38:15.518Z,10.91
2019-03-01T00:41:31.567Z,10.98
2019-03-01T00:44:13.593Z,10.99
2019-03-01T00:46:58.594Z,10.92
2019-03-01T00:50:15.720Z,10.92
2019-03-01T00:52:36.720Z,10.97
2019-03-01T00:55:05.980Z,10.99
2019-03-01T00:58:04.757Z,11.02
2019-03-01T01:00:37.361Z,10.96
2019-03-01T01:03:11.220Z,10.94
2019-03-01T01:06:35.544Z,10.97
2019-03-01T01:09:11.484Z,11.02
2019-03-01T01:11:41.143Z,10.88
2019-03-01T01:14:10.149Z,10.96
2019-03-01T01:17:04.121Z,10.96
2019-03-01T01:19:53.360Z,10.97
2019-03-01T01:22:33.632Z,10.97
2019-03-01T01:25:46.343Z,11.08
2019-03-01T01:28:07.048Z,11.10
2019-03-01T01:31:40.105Z,11.12
2019-03-01T01:33:39.497Z,11.15
2019-03-01T01:36:17.241Z,11.11
2019-03-01T01:39:16.869Z,11.03
2019-03-01T01:42:04.446Z,10.98
2019-03-01T01:44:39.658Z,11.03
2019-03-01T01:47:29.400Z,10.94
2019-03-01T01:50:12.914Z,10.95
2019-03-01T01:55:54.231Z,10.96
2019-03-01T01:58:21.489Z,10.89
2019-03-01T02:01:04.680Z,10.80
2019-03-01T02:04:10.031Z,10.82
2019-03-01T02:06:37.058Z,10.83
2019-03-01T02:09:18.627Z,10.82
2019-03-01T02:11:50.282Z,10.70
2019-03-01T02:14:52.449Z,10.75
2019-03-01T02:17:30.275Z,10.73
2019-03-01T02:19:59.297Z,10.76
2019-03-01T02:22:28.315Z,10.81
2019-03-01T02:34:00.271Z,10.74
2019-03-01T02:51:36.619Z,10.72
2019-03-01T02:54:25.968Z,10.75
2019-03-01T03:00:40.768Z,10.81
2019-03-01T03:03:08.238Z,10.79
2019-03-01T03:09:56.294Z,10.73
2019-03-01T03:12:50.882Z,10.73
2019-03-01T03:16:31.846Z,10.74
2019-03-01T03:19:28.842Z,10.69
2019-03-01T03:23:19.684Z,10.67
2019-03-01T03:25:07.863Z,10.70
2019-03-01T03:28:10.659Z,11.08
2019-03-01T03:31:35.797Z,10.82
2019-03-01T03:35:17.801Z,10.80
2019-03-01T03:38:03.464Z,10.73
2019-03-01T03:41:06.856Z,10.71
2019-03-01T03:48:39.851Z,10.80
2019-03-01T03:50:30.432Z,10.70
2019-03-01T03:53:09.219Z,11.10
2019-03-01T03:55:36.635Z,10.73
2019-03-01T03:58:31.603Z,10.65
2019-03-01T04:12:06.644Z,10.26
2019-03-01T04:14:38.967Z,10.21
2019-03-01T04:17:13.669Z,10.22
2019-03-01T04:38:40.350Z,9.97
2019-03-01T04:41:13.451Z,9.99
2019-03-01T04:43:46.674Z,10.05
2019-03-01T04:46:28.610Z,9.92
2019-03-01T04:49:07.427Z,9.88
2019-03-01T04:52:10.795Z,9.86
2019-03-01T04:55:15.501Z,9.80
2019-03-01T04:57:58.484Z,9.77
2019-03-01T05:01:03.547Z,9.75
2019-03-01T05:04:22.817Z,9.77
2019-03-01T05:07:21.183Z,9.80
2019-03-01T05:09:44.449Z,9.82
2019-03-01T05:13:02.744Z,9.79
2019-03-01T05:16:19.770Z,9.76
2019-03-01T05:19:11.847Z,9.77
2019-03-01T05:21:33.464Z,9.71
2019-03-01T05:24:09.623Z,10.02
2019-03-01T05:28:19.193Z,9.83
2019-03-01T05:30:42.984Z,9.77
2019-03-01T05:33:34.614Z,9.73
2019-03-01T05:37:10.843Z,9.73
2019-03-01T05:39:58.001Z,9.70
2019-03-01T05:42:46.298Z,9.71
2019-03-01T05:45:22.927Z,9.68
2019-03-01T05:48:51.219Z,9.60
2019-03-01T05:52:21.402Z,9.54
2019-03-01T05:59:10.812Z,9.48
2019-03-01T06:02:19.095Z,9.48
2019-03-01T06:05:29.703Z,9.42
2019-03-01T06:08:41.268Z,9.40
2019-03-01T06:11:50.891Z,9.78
2019-03-01T06:15:32.601Z,9.50
2019-03-01T06:18:41.273Z,9.46
2019-03-01T06:22:12.134Z,9.34
2019-03-01T06:25:40.073Z,9.33
2019-03-01T06:29:20.332Z,9.35
2019-03-01T06:32:51.540Z,9.31
2019-03-01T06:39:54.804Z,9.30
2019-03-01T06:43:13.645Z,9.77
2019-03-01T06:46:22.973Z,9.50
2019-03-01T06:49:37.925Z,9.47
2019-03-01T06:52:07.185Z,9.44
2019-03-01T06:55:43.227Z,9.43
2019-03-01T06:58:27.584Z,9.44
2019-03-01T07:01:13.903Z,9.91
2019-03-01T07:03:43.372Z,9.65
2019-03-01T07:07:05.805Z,9.56
2019-03-01T07:09:51.773Z,9.53
2019-03-01T07:12:55.673Z,9.59
2019-03-01T07:16:05.229Z,9.59
2019-03-01T07:22:13.753Z,9.64
2019-03-01T07:28:48.461Z,9.46
2019-03-01T07:32:17.651Z,9.41
2019-03-01T07:35:00.044Z,9.38
2019-03-01T07:38:08.735Z,9.38
2019-03-01T07:41:05.694Z,9.40
2019-03-01T07:43:31.087Z,9.36
2019-03-01T07:46:52.643Z,9.38
2019-03-01T07:50:26.077Z,9.44
2019-03-01T07:54:08.602Z,9.47
2019-03-01T07:56:45.775Z,9.42
2019-03-01T07:59:47.623Z,9.44
2019-03-01T08:06:06.772Z,9.55
2019-03-01T08:13:03.962Z,9.71
2019-03-01T08:17:10.266Z,9.69
2019-03-01T08:23:58.462Z,9.69
2019-03-01T08:26:11.364Z,9.78
2019-03-01T08:33:02.581Z,9.77
2019-03-01T09:11:58.333Z,9.15
2019-03-01T09:14:28.250Z,9.22
2019-03-01T09:33:45.695Z,8.80
2019-03-01T09:36:39.976Z,9.00
2019-03-01T09:39:50.440Z,8.86
2019-03-01T09:54:38.791Z,8.76
2019-03-01T10:05:15.426Z,8.77
2019-03-01T10:09:08.656Z,8.62
2019-03-01T10:12:16.017Z,8.91
2019-03-01T10:14:45.982Z,8.77
2019-03-01T10:21:04.245Z,9.11
2019-03-01T10:24:45.535Z,8.96
2019-03-01T10:27:14.436Z,8.82
2019-03-01T10:31:15.076Z,8.85
2019-03-01T10:37:20.258Z,8.76
2019-03-01T10:39:55.339Z,8.76
2019-03-01T10:43:38.789Z,8.68
2019-03-01T10:46:38.312Z,8.70
2019-03-01T10:49:07.444Z,8.74
2019-03-01T10:52:31.410Z,8.84
2019-03-01T10:59:07.441Z,9.01
2019-03-01T11:02:15.461Z,9.11
2019-03-01T11:05:53.081Z,9.11
2019-03-01T11:08:39.681Z,9.10
2019-03-01T11:11:09.049Z,9.10
2019-03-01T11:13:41.345Z,9.13
2019-03-01T11:20:10.174Z,9.51
2019-03-01T11:22:42.134Z,9.59
2019-03-01T11:29:01.863Z,9.76
2019-03-01T11:32:00.566Z,9.68
2019-03-01T11:41:24.724Z,9.46
2019-03-01T11:46:57.415Z,9.31
2019-03-01T11:49:29.739Z,9.41
2019-03-01T11:52:49.088Z,9.47
2019-03-01T11:55:46.077Z,9.45
2019-03-01T11:59:04.242Z,9.43
2019-03-01T12:01:28.403Z,9.42
2019-03-01T12:04:31.241Z,9.32
2019-03-01T12:07:42.249Z,9.20
2019-03-01T12:10:22.779Z,9.18
2019-03-01T12:12:51.892Z,9.15
2019-03-01T12:15:26.423Z,9.18
2019-03-01T12:29:14.358Z,9.09
2019-03-01T12:35:22.006Z,9.00
2019-03-01T12:37:54.226Z,9.11
2019-03-01T12:40:24.757Z,9.06
2019-03-01T12:43:01.260Z,9.10
2019-03-01T12:45:47.587Z,9.21
2019-03-01T12:48:16.758Z,9.21
2019-03-01T12:50:45.906Z,9.19
2019-03-01T12:53:15.075Z,9.21
2019-03-01T12:55:44.267Z,9.12
2019-03-01T12:58:28.837Z,9.14
2019-03-01T13:00:57.977Z,9.24
2019-03-01T13:04:07.623Z,9.17
2019-03-01T13:07:13.170Z,9.23
2019-03-01T13:09:42.114Z,9.30
2019-03-01T13:12:39.157Z,9.24
2019-03-01T13:15:10.704Z,9.17
2019-03-01T13:17:42.087Z,9.17
2019-03-01T13:20:18.178Z,9.21
2019-03-01T13:27:22.456Z,9.44
2019-03-01T13:30:49.068Z,9.40
2019-03-01T13:34:36.886Z,9.48
2019-03-01T13:37:14.423Z,9.44
2019-03-01T13:39:45.004Z,9.38
2019-03-01T13:50:05.444Z,9.40
2019-03-01T13:55:46.711Z,9.29
2019-03-01T13:59:02.877Z,9.19
2019-03-01T14:01:48.030Z,9.19
2019-03-01T14:04:40.225Z,9.61
2019-03-01T14:07:10.323Z,9.30
2019-03-01T14:10:18.169Z,9.30
2019-03-01T14:12:47.259Z,9.23
2019-03-01T14:15:43.262Z,9.27
2019-03-01T14:18:45.394Z,9.20
2019-03-01T14:21:59.892Z,9.17
2019-03-01T14:24:56.162Z,9.24
2019-03-01T14:27:48.617Z,9.30
2019-03-01T14:30:51.920Z,9.58
2019-03-01T14:33:19.179Z,9.25
2019-03-01T14:36:07.807Z,9.21
2019-03-01T14:48:19.883Z,9.04
2019-03-01T14:51:10.597Z,9.03
2019-03-01T14:54:45.107Z,9.01
2019-03-01T14:57:54.692Z,8.96
2019-03-01T15:01:35.452Z,8.96
2019-03-01T15:05:05.337Z,8.92
2019-03-01T15:12:27.375Z,9.06
2019-03-01T15:22:03.760Z,8.99
2019-03-01T15:24:00.371Z,9.04
2019-03-01T15:24:36.192Z,9.09
2019-03-01T15:27:44.237Z,8.92
2019-03-01T15:33:33.854Z,8.83
2019-03-01T15:37:01.686Z,9.17
2019-03-01T15:39:47.522Z,9.01
2019-03-01T15:42:29.443Z,9.01
2019-03-01T15:45:28.490Z,9.01
2019-03-01T15:48:10.031Z,8.86
2019-03-01T15:50:59.051Z,8.83
2019-03-01T15:53:53.368Z,8.76
2019-03-01T15:56:08.303Z,8.81
2019-03-01T15:58:37.280Z,8.86
2019-03-01T16:01:11.774Z,8.86
2019-03-01T16:03:41.872Z,8.88
2019-03-01T16:06:17.260Z,8.86
2019-03-01T16:08:57.414Z,8.72
2019-03-01T16:11:24.323Z,8.73
2019-03-01T16:13:53.396Z,8.71
2019-03-01T16:16:22.507Z,8.70
2019-03-01T16:19:06.635Z,8.73
2019-03-01T16:21:43.013Z,8.61
2019-03-01T16:24:22.260Z,8.62
2019-03-01T16:26:53.056Z,8.58
2019-03-01T16:29:22.163Z,8.54
2019-03-01T16:31:51.166Z,8.53
2019-03-01T16:34:20.227Z,8.56
2019-03-01T16:36:51.475Z,8.53
2019-03-01T16:39:35.633Z,8.54
2019-03-01T16:42:04.728Z,8.51
2019-03-01T16:45:04.453Z,8.49
2019-03-01T16:48:02.091Z,8.56
2019-03-01T16:50:31.154Z,8.51
2019-03-01T16:53:04.337Z,8.55
2019-03-01T16:55:29.375Z,8.52
2019-03-01T16:58:06.827Z,8.54
2019-03-01T17:00:27.611Z,8.50
2019-03-01T17:03:05.383Z,8.48
2019-03-01T17:05:35.757Z,8.53
2019-03-01T17:08:05.555Z,8.43
2019-03-01T17:10:31.205Z,8.48
2019-03-01T17:12:59.965Z,8.45
2019-03-01T17:15:29.035Z,8.46
2019-03-01T17:17:58.013Z,8.44
2019-03-01T17:20:27.192Z,8.40
2019-03-01T17:23:03.102Z,8.39
2019-03-01T17:25:31.347Z,8.44
2019-03-01T17:29:18.741Z,8.38
2019-03-01T17:31:38.204Z,8.36
2019-03-01T17:34:10.419Z,8.35
2019-03-01T17:37:32.344Z,8.37
2019-03-01T17:40:25.514Z,8.41
2019-03-01T17:43:09.644Z,8.32
2019-03-01T17:46:02.776Z,8.26
2019-03-01T17:48:31.872Z,8.21
2019-03-01T17:55:53.605Z,8.21
2019-03-01T18:02:22.828Z,8.31
2019-03-01T18:05:00.103Z,8.24
2019-03-01T18:10:44.883Z,8.26
2019-03-01T18:13:15.086Z,8.28
2019-03-01T18:15:45.082Z,8.27
2019-03-01T18:18:12.883Z,8.23
2019-03-01T18:21:04.977Z,8.14
2019-03-01T18:24:20.291Z,8.17
2019-03-01T18:26:58.307Z,8.15
2019-03-01T18:34:42.805Z,8.19
2019-03-01T18:38:06.937Z,8.19
2019-03-01T18:40:51.752Z,8.20
2019-03-01T18:44:44.383Z,8.19
2019-03-01T18:47:20.657Z,8.13
2019-03-01T18:50:11.387Z,8.39
2019-03-01T18:52:53.208Z,8.66
2019-03-01T18:55:52.924Z,8.34
2019-03-01T18:58:25.050Z,8.28
2019-03-01T19:01:46.511Z,8.31
2019-03-01T19:04:31.387Z,8.24
2019-03-01T19:07:07.997Z,8.28
2019-03-01T19:09:59.183Z,8.27
2019-03-01T19:12:35.285Z,8.41
2019-03-01T19:15:25.460Z,8.38
2019-03-01T19:17:54.575Z,8.29
2019-03-01T19:20:25.456Z,8.25
2019-03-01T19:22:58.731Z,8.21
2019-03-01T19:25:35.748Z,8.22
2019-03-01T19:29:08.774Z,8.22
2019-03-01T19:31:47.396Z,8.73
2019-03-01T19:34:16.907Z,8.38
2019-03-01T19:36:57.381Z,8.31
2019-03-01T19:39:54.746Z,8.27
2019-03-01T19:43:01.045Z,8.22
2019-03-01T19:45:41.577Z,8.24
2019-03-01T19:48:13.496Z,8.21
2019-03-01T19:50:52.509Z,8.22
2019-03-01T19:53:25.436Z,8.18
2019-03-01T19:55:56.506Z,8.20
2019-03-01T19:58:29.889Z,8.18
2019-03-01T20:01:00.412Z,8.13
2019-03-01T20:03:29.938Z,8.10
2019-03-01T20:05:59.153Z,8.07
2019-03-01T20:08:31.724Z,8.09
2019-03-01T20:11:05.179Z,8.13
2019-03-01T20:13:35.501Z,8.17
2019-03-01T20:16:04.939Z,8.18
2019-03-01T20:18:41.766Z,8.16
2019-03-01T20:21:12.216Z,8.11
2019-03-01T20:23:41.508Z,8.05
2019-03-01T20:26:14.265Z,8.02
2019-03-01T20:28:51.616Z,8.00
2019-03-01T20:31:26.712Z,7.97
2019-03-01T20:34:16.174Z,7.99
2019-03-01T20:37:03.049Z,8.07
2019-03-01T20:39:17.452Z,8.07
2019-03-01T20:41:52.370Z,8.46
2019-03-01T20:44:21.721Z,8.17
2019-03-01T20:46:50.733Z,8.12
2019-03-01T20:49:20.078Z,8.15
2019-03-01T20:51:52.410Z,8.26
2019-03-01T20:54:33.104Z,8.18
2019-03-01T20:57:03.164Z,8.07
2019-03-01T20:59:46.735Z,8.08
2019-03-01T21:02:22.489Z,8.05
2019-03-01T21:04:54.668Z,8.06
2019-03-01T21:07:24.008Z,8.11
2019-03-01T21:09:59.207Z,8.10
2019-03-01T21:12:28.739Z,8.11
2019-03-01T21:14:58.690Z,8.13
2019-03-01T21:18:05.080Z,8.12
2019-03-01T21:21:25.636Z,8.08
2019-03-01T21:24:03.682Z,8.04
2019-03-01T21:26:32.716Z,8.10
2019-03-01T21:29:03.672Z,8.06
2019-03-01T21:31:35.403Z,8.50
2019-03-01T21:34:52.296Z,8.70
2019-03-01T21:37:10.225Z,8.26
2019-03-01T21:40:15.057Z,8.15
2019-03-01T21:42:39.503Z,8.11
2019-03-01T21:47:02.634Z,8.11
2019-03-01T21:49:51.906Z,7.97
2019-03-01T21:56:24.117Z,8.10
2019-03-01T21:59:04.965Z,7.96
2019-03-01T22:02:08.830Z,7.96
2019-03-01T22:17:00.589Z,7.78
2019-03-01T22:20:14.578Z,7.76
2019-03-01T22:22:34.178Z,7.76
2019-03-01T22:25:17.911Z,7.78
2019-03-01T22:27:44.756Z,7.64
2019-03-01T22:31:19.856Z,7.65
2019-03-01T22:34:01.000Z,7.66
2019-03-01T22:36:54.774Z,7.65
2019-03-01T22:42:57.631Z,8.24
2019-03-01T22:45:48.847Z,8.37
2019-03-01T22:48:52.974Z,7.98
2019-03-01T22:51:14.504Z,7.96
2019-03-01T22:53:43.173Z,7.90
2019-03-01T22:56:36.755Z,7.96
2019-03-01T22:59:08.700Z,7.97
2019-03-01T23:01:43.356Z,8.39
2019-03-01T23:04:13.002Z,8.07
2019-03-01T23:06:42.398Z,8.48
2019-03-01T23:09:18.897Z,8.17
2019-03-01T23:11:50.805Z,8.05
2019-03-01T23:14:20.018Z,8.06
2019-03-01T23:16:54.435Z,8.02
2019-03-01T23:19:22.843Z,8.00
2019-03-01T23:21:58.676Z,7.99
2019-03-01T23:24:31.644Z,7.87
2019-03-01T23:26:59.673Z,7.74
2019-03-01T23:30:03.558Z,7.77
2019-03-01T23:33:23.527Z,7.82
2019-03-01T23:35:53.921Z,7.85
2019-03-01T23:38:22.737Z,7.85
2019-03-01T23:40:51.808Z,8.26
2019-03-01T23:43:21.115Z,7.96
2019-03-01T23:45:53.737Z,7.97
2019-03-01T23:48:21.877Z,7.83
2019-03-01T23:50:51.172Z,7.72
2019-03-01T23:53:20.311Z,7.77
2019-03-01T23:55:50.982Z,7.84
2019-03-01T23:58:20.788Z,7.81
